sensor_id;sensor_type;location;lat;lon;timestamp;P1;durP1;ratioP1;P2;durP2;ratioP2
58685;SDS011;44465;53.206;-6.106;2022-08-18T00:04:42;6.32;;;2.05;;
58685;SDS011;44465;53.206;-6.106;2022-08-18T00:07:09;3.17;;;1.65;;
58685;SDS011;44465;53.206;-6.106;2022-08-18T00:09:38;4.63;;;1.48;;
58685;SDS011;44465;53.206;-6.106;2022-08-18T00:12:06;5.88;;;1.90;;
58685;SDS011;44465;53.206;-6.106;2022-08-18T00:14:37;7.88;;;1.80;;
58685;SDS011;44465;53.206;-6.106;2022-08-18T00:17:02;2.70;;;1.58;;
58685;SDS011;44465;53.206;-6.106;2022-08-18T00:19:28;3.92;;;1.70;;
58685;SDS011;44465;53.206;-6.106;2022-08-18T00:21:53;8.15;;;1.83;;
58685;SDS011;44465;53.206;-6.106;2022-08-18T00:24:19;8.10;;;2.25;;
58685;SDS011;44465;53.206;-6.106;2022-08-18T00:26:45;4.93;;;1.63;;
58685;SDS011;44465;53.206;-6.106;2022-08-18T00:29:10;5.95;;;1.48;;
58685;SDS011;44465;53.206;-6.106;2022-08-18T00:31:36;3.22;;;1.70;;
58685;SDS011;44465;53.206;-6.106;2022-08-18T00:34:01;3.97;;;1.55;;
58685;SDS011;44465;53.206;-6.106;2022-08-18T00:36:27;13.30;;;1.77;;
58685;SDS011;44465;53.206;-6.106;2022-08-18T00:38:52;5.88;;;2.05;;
58685;SDS011;44465;53.206;-6.106;2022-08-18T00:41:18;5.22;;;1.80;;
58685;SDS011;44465;53.206;-6.106;2022-08-18T00:43:45;5.28;;;1.50;;
58685;SDS011;44465;53.206;-6.106;2022-08-18T00:46:21;7.68;;;1.70;;
58685;SDS011;44465;53.206;-6.106;2022-08-18T00:48:50;2.50;;;1.35;;
58685;SDS011;44465;53.206;-6.106;2022-08-18T00:51:22;5.15;;;1.60;;
58685;SDS011;44465;53.206;-6.106;2022-08-18T00:54:17;4.78;;;1.75;;
58685;SDS011;44465;53.206;-6.106;2022-08-18T00:56:46;5.75;;;1.58;;
58685;SDS011;44465;53.206;-6.106;2022-08-18T01:02:08;3.22;;;1.50;;
58685;SDS011;44465;53.206;-6.106;2022-08-18T01:04:48;4.00;;;1.80;;
58685;SDS011;44465;53.206;-6.106;2022-08-18T01:07:27;2.47;;;1.48;;
58685;SDS011;44465;53.206;-6.106;2022-08-18T01:09:58;6.38;;;1.60;;
58685;SDS011;44465;53.206;-6.106;2022-08-18T01:12:24;2.72;;;1.33;;
58685;SDS011;44465;53.206;-6.106;2022-08-18T01:14:51;2.28;;;1.38;;
58685;SDS011;44465;53.206;-6.106;2022-08-18T01:20:02;1.70;;;1.30;;
58685;SDS011;44465;53.206;-6.106;2022-08-18T01:22:59;3.22;;;1.80;;
58685;SDS011;44465;53.206;-6.106;2022-08-18T01:25:25;2.58;;;1.42;;
58685;SDS011;44465;53.206;-6.106;2022-08-18T01:28:10;2.15;;;1.45;;
58685;SDS011;44465;53.206;-6.106;2022-08-18T01:30:51;3.78;;;1.60;;
58685;SDS011;44465;53.206;-6.106;2022-08-18T01:33:23;2.45;;;1.25;;
58685;SDS011;44465;53.206;-6.106;2022-08-18T01:35:51;1.50;;;1.40;;
58685;SDS011;44465;53.206;-6.106;2022-08-18T01:38:18;2.10;;;1.50;;
58685;SDS011;44465;53.206;-6.106;2022-08-18T01:40:45;2.05;;;1.30;;
58685;SDS011;44465;53.206;-6.106;2022-08-18T01:43:11;1.50;;;1.33;;
58685;SDS011;44465;53.206;-6.106;2022-08-18T01:45:38;1.42;;;1.33;;
58685;SDS011;44465;53.206;-6.106;2022-08-18T01:48:04;2.47;;;1.58;;
58685;SDS011;44465;53.206;-6.106;2022-08-18T01:50:30;3.30;;;1.50;;
58685;SDS011;44465;53.206;-6.106;2022-08-18T01:52:59;1.23;;;1.13;;
58685;SDS011;44465;53.206;-6.106;2022-08-18T01:55:24;2.85;;;1.40;;
58685;SDS011;44465;53.206;-6.106;2022-08-18T02:00:18;3.72;;;1.60;;
58685;SDS011;44465;53.206;-6.106;2022-08-18T02:02:44;3.38;;;1.58;;
58685;SDS011;44465;53.206;-6.106;2022-08-18T02:05:12;3.08;;;1.50;;
58685;SDS011;44465;53.206;-6.106;2022-08-18T02:07:41;2.78;;;1.45;;
58685;SDS011;44465;53.206;-6.106;2022-08-18T02:10:07;2.92;;;1.23;;
58685;SDS011;44465;53.206;-6.106;2022-08-18T02:12:35;4.38;;;1.60;;
58685;SDS011;44465;53.206;-6.106;2022-08-18T02:15:01;2.15;;;1.27;;
58685;SDS011;44465;53.206;-6.106;2022-08-18T02:17:27;3.03;;;1.20;;
58685;SDS011;44465;53.206;-6.106;2022-08-18T02:19:53;2.03;;;1.30;;
58685;SDS011;44465;53.206;-6.106;2022-08-18T02:22:19;1.38;;;1.08;;
58685;SDS011;44465;53.206;-6.106;2022-08-18T02:24:45;3.22;;;1.38;;
58685;SDS011;44465;53.206;-6.106;2022-08-18T02:27:11;1.50;;;1.40;;
58685;SDS011;44465;53.206;-6.106;2022-08-18T02:29:38;1.35;;;1.23;;
58685;SDS011;44465;53.206;-6.106;2022-08-18T02:32:04;1.77;;;1.30;;
58685;SDS011;44465;53.206;-6.106;2022-08-18T02:34:31;1.55;;;1.30;;
58685;SDS011;44465;53.206;-6.106;2022-08-18T02:36:58;3.08;;;1.67;;
58685;SDS011;44465;53.206;-6.106;2022-08-18T02:39:24;1.75;;;1.13;;
58685;SDS011;44465;53.206;-6.106;2022-08-18T02:41:50;2.00;;;1.20;;
58685;SDS011;44465;53.206;-6.106;2022-08-18T02:44:15;2.92;;;1.38;;
58685;SDS011;44465;53.206;-6.106;2022-08-18T02:46:41;1.38;;;1.20;;
58685;SDS011;44465;53.206;-6.106;2022-08-18T02:49:07;1.70;;;1.30;;
58685;SDS011;44465;53.206;-6.106;2022-08-18T02:51:33;2.05;;;1.20;;
58685;SDS011;44465;53.206;-6.106;2022-08-18T02:53:59;2.75;;;1.48;;
58685;SDS011;44465;53.206;-6.106;2022-08-18T02:56:26;3.17;;;1.50;;
58685;SDS011;44465;53.206;-6.106;2022-08-18T02:58:55;2.22;;;1.25;;
58685;SDS011;44465;53.206;-6.106;2022-08-18T03:01:24;2.15;;;1.35;;
58685;SDS011;44465;53.206;-6.106;2022-08-18T03:03:52;1.33;;;1.23;;
58685;SDS011;44465;53.206;-6.106;2022-08-18T03:06:19;1.40;;;1.27;;
58685;SDS011;44465;53.206;-6.106;2022-08-18T03:08:45;1.73;;;1.35;;
58685;SDS011;44465;53.206;-6.106;2022-08-18T03:11:16;2.60;;;1.40;;
58685;SDS011;44465;53.206;-6.106;2022-08-18T03:13:43;1.70;;;1.60;;
58685;SDS011;44465;53.206;-6.106;2022-08-18T03:16:08;2.70;;;1.30;;
58685;SDS011;44465;53.206;-6.106;2022-08-18T03:18:34;1.40;;;1.30;;
58685;SDS011;44465;53.206;-6.106;2022-08-18T03:21:04;1.33;;;1.23;;
58685;SDS011;44465;53.206;-6.106;2022-08-18T03:23:34;1.42;;;1.33;;
58685;SDS011;44465;53.206;-6.106;2022-08-18T03:26:00;1.42;;;1.30;;
58685;SDS011;44465;53.206;-6.106;2022-08-18T03:28:26;1.60;;;1.50;;
58685;SDS011;44465;53.206;-6.106;2022-08-18T03:30:53;1.20;;;1.10;;
58685;SDS011;44465;53.206;-6.106;2022-08-18T03:33:19;1.40;;;1.30;;
58685;SDS011;44465;53.206;-6.106;2022-08-18T03:35:45;1.95;;;1.50;;
58685;SDS011;44465;53.206;-6.106;2022-08-18T03:38:11;1.50;;;1.30;;
58685;SDS011;44465;53.206;-6.106;2022-08-18T03:40:37;1.92;;;1.75;;
58685;SDS011;44465;53.206;-6.106;2022-08-18T03:43:03;1.60;;;1.50;;
58685;SDS011;44465;53.206;-6.106;2022-08-18T03:45:33;1.50;;;1.38;;
58685;SDS011;44465;53.206;-6.106;2022-08-18T03:47:59;3.20;;;1.50;;
58685;SDS011;44465;53.206;-6.106;2022-08-18T03:50:26;2.13;;;1.25;;
58685;SDS011;44465;53.206;-6.106;2022-08-18T03:52:52;2.20;;;1.25;;
58685;SDS011;44465;53.206;-6.106;2022-08-18T03:55:19;1.40;;;1.30;;
58685;SDS011;44465;53.206;-6.106;2022-08-18T03:57:45;1.30;;;1.20;;
58685;SDS011;44465;53.206;-6.106;2022-08-18T04:00:10;1.30;;;1.20;;
58685;SDS011;44465;53.206;-6.106;2022-08-18T04:02:37;2.20;;;1.52;;
58685;SDS011;44465;53.206;-6.106;2022-08-18T04:05:04;2.07;;;1.43;;
58685;SDS011;44465;53.206;-6.106;2022-08-18T04:07:30;2.08;;;1.00;;
58685;SDS011;44465;53.206;-6.106;2022-08-18T04:09:55;1.85;;;1.75;;
58685;SDS011;44465;53.206;-6.106;2022-08-18T04:12:21;0.98;;;0.98;;
58685;SDS011;44465;53.206;-6.106;2022-08-18T04:14:47;1.40;;;1.30;;
58685;SDS011;44465;53.206;-6.106;2022-08-18T04:17:15;1.70;;;1.60;;
58685;SDS011;44465;53.206;-6.106;2022-08-18T04:19:41;1.45;;;1.35;;
58685;SDS011;44465;53.206;-6.106;2022-08-18T04:22:07;1.30;;;1.13;;
58685;SDS011;44465;53.206;-6.106;2022-08-18T04:24:32;1.38;;;1.27;;
58685;SDS011;44465;53.206;-6.106;2022-08-18T04:27:01;1.50;;;1.40;;
58685;SDS011;44465;53.206;-6.106;2022-08-18T04:29:28;1.48;;;1.38;;
58685;SDS011;44465;53.206;-6.106;2022-08-18T04:31:54;1.30;;;1.20;;
58685;SDS011;44465;53.206;-6.106;2022-08-18T04:34:20;1.48;;;1.38;;
58685;SDS011;44465;53.206;-6.106;2022-08-18T04:36:47;1.20;;;1.10;;
58685;SDS011;44465;53.206;-6.106;2022-08-18T04:39:13;1.70;;;1.25;;
58685;SDS011;44465;53.206;-6.106;2022-08-18T04:41:41;1.55;;;1.38;;
58685;SDS011;44465;53.206;-6.106;2022-08-18T04:44:08;1.63;;;1.27;;
58685;SDS011;44465;53.206;-6.106;2022-08-18T04:46:36;3.65;;;1.45;;
58685;SDS011;44465;53.206;-6.106;2022-08-18T04:49:04;1.60;;;1.50;;
58685;SDS011;44465;53.206;-6.106;2022-08-18T04:51:30;1.50;;;1.20;;
58685;SDS011;44465;53.206;-6.106;2022-08-18T04:53:55;1.85;;;1.38;;
58685;SDS011;44465;53.206;-6.106;2022-08-18T04:56:25;1.55;;;1.45;;
58685;SDS011;44465;53.206;-6.106;2022-08-18T04:58:54;1.42;;;1.33;;
58685;SDS011;44465;53.206;-6.106;2022-08-18T05:01:22;1.48;;;1.38;;
58685;SDS011;44465;53.206;-6.106;2022-08-18T05:03:50;1.75;;;1.40;;
58685;SDS011;44465;53.206;-6.106;2022-08-18T05:06:18;1.45;;;1.35;;
58685;SDS011;44465;53.206;-6.106;2022-08-18T05:08:44;1.38;;;1.27;;
58685;SDS011;44465;53.206;-6.106;2022-08-18T05:13:39;1.60;;;1.50;;
58685;SDS011;44465;53.206;-6.106;2022-08-18T05:16:04;1.95;;;1.50;;
58685;SDS011;44465;53.206;-6.106;2022-08-18T05:18:31;1.70;;;1.60;;
58685;SDS011;44465;53.206;-6.106;2022-08-18T05:20:58;1.40;;;1.30;;
58685;SDS011;44465;53.206;-6.106;2022-08-18T05:23:25;1.83;;;1.40;;
58685;SDS011;44465;53.206;-6.106;2022-08-18T05:25:55;1.38;;;1.27;;
58685;SDS011;44465;53.206;-6.106;2022-08-18T05:28:24;1.45;;;1.35;;
58685;SDS011;44465;53.206;-6.106;2022-08-18T05:30:50;1.42;;;1.27;;
58685;SDS011;44465;53.206;-6.106;2022-08-18T05:33:16;1.85;;;1.40;;
58685;SDS011;44465;53.206;-6.106;2022-08-18T05:35:42;1.92;;;1.40;;
58685;SDS011;44465;53.206;-6.106;2022-08-18T05:41:14;2.53;;;1.35;;
58685;SDS011;44465;53.206;-6.106;2022-08-18T05:43:46;1.42;;;1.33;;
58685;SDS011;44465;53.206;-6.106;2022-08-18T05:46:13;1.40;;;1.30;;
58685;SDS011;44465;53.206;-6.106;2022-08-18T05:48:40;1.38;;;1.20;;
58685;SDS011;44465;53.206;-6.106;2022-08-18T05:51:13;3.85;;;1.30;;
58685;SDS011;44465;53.206;-6.106;2022-08-18T05:53:46;1.27;;;1.17;;
58685;SDS011;44465;53.206;-6.106;2022-08-18T05:56:32;1.50;;;1.40;;
58685;SDS011;44465;53.206;-6.106;2022-08-18T05:59:16;2.90;;;1.50;;
58685;SDS011;44465;53.206;-6.106;2022-08-18T06:01:52;4.40;;;1.60;;
58685;SDS011;44465;53.206;-6.106;2022-08-18T06:04:25;2.55;;;1.40;;
58685;SDS011;44465;53.206;-6.106;2022-08-18T06:07:03;1.63;;;1.40;;
58685;SDS011;44465;53.206;-6.106;2022-08-18T06:09:35;4.07;;;1.70;;
58685;SDS011;44465;53.206;-6.106;2022-08-18T06:12:23;1.98;;;1.13;;
58685;SDS011;44465;53.206;-6.106;2022-08-18T06:14:53;6.15;;;1.67;;
58685;SDS011;44465;53.206;-6.106;2022-08-18T06:20:14;2.08;;;1.38;;
58685;SDS011;44465;53.206;-6.106;2022-08-18T06:25:52;3.95;;;2.00;;
58685;SDS011;44465;53.206;-6.106;2022-08-18T06:28:52;4.57;;;1.67;;
58685;SDS011;44465;53.206;-6.106;2022-08-18T06:37:19;8.13;;;1.73;;
58685;SDS011;44465;53.206;-6.106;2022-08-18T06:39:53;3.35;;;1.60;;
58685;SDS011;44465;53.206;-6.106;2022-08-18T06:42:23;2.97;;;1.65;;
58685;SDS011;44465;53.206;-6.106;2022-08-18T06:44:57;3.13;;;1.80;;
58685;SDS011;44465;53.206;-6.106;2022-08-18T06:47:36;6.03;;;1.90;;
58685;SDS011;44465;53.206;-6.106;2022-08-18T06:50:18;5.30;;;1.80;;
58685;SDS011;44465;53.206;-6.106;2022-08-18T06:52:54;7.32;;;1.92;;
58685;SDS011;44465;53.206;-6.106;2022-08-18T06:55:42;4.07;;;1.73;;
58685;SDS011;44465;53.206;-6.106;2022-08-18T07:04:01;3.55;;;1.95;;
58685;SDS011;44465;53.206;-6.106;2022-08-18T07:06:09;3.58;;;1.92;;
58685;SDS011;44465;53.206;-6.106;2022-08-18T07:08:45;3.00;;;1.42;;
58685;SDS011;44465;53.206;-6.106;2022-08-18T07:11:13;4.78;;;1.77;;
58685;SDS011;44465;53.206;-6.106;2022-08-18T07:13:42;4.68;;;1.98;;
58685;SDS011;44465;53.206;-6.106;2022-08-18T07:16:42;7.63;;;1.83;;
58685;SDS011;44465;53.206;-6.106;2022-08-18T07:21:34;4.47;;;1.73;;
58685;SDS011;44465;53.206;-6.106;2022-08-18T07:29:25;5.20;;;1.70;;
58685;SDS011;44465;53.206;-6.106;2022-08-18T07:31:51;4.47;;;1.88;;
58685;SDS011;44465;53.206;-6.106;2022-08-18T07:34:41;4.10;;;1.73;;
58685;SDS011;44465;53.206;-6.106;2022-08-18T07:43:03;3.05;;;1.55;;
58685;SDS011;44465;53.206;-6.106;2022-08-18T07:45:39;3.20;;;1.38;;
58685;SDS011;44465;53.206;-6.106;2022-08-18T07:51:08;1.83;;;1.42;;
58685;SDS011;44465;53.206;-6.106;2022-08-18T07:56:15;1.55;;;1.45;;
58685;SDS011;44465;53.206;-6.106;2022-08-18T07:58:57;5.15;;;1.73;;
58685;SDS011;44465;53.206;-6.106;2022-08-18T08:01:49;2.65;;;1.50;;
58685;SDS011;44465;53.206;-6.106;2022-08-18T08:04:25;2.00;;;1.70;;
58685;SDS011;44465;53.206;-6.106;2022-08-18T08:07:23;1.58;;;1.35;;
58685;SDS011;44465;53.206;-6.106;2022-08-18T08:13:00;2.33;;;1.23;;
58685;SDS011;44465;53.206;-6.106;2022-08-18T08:15:35;2.85;;;1.40;;
58685;SDS011;44465;53.206;-6.106;2022-08-18T08:21:09;2.58;;;1.40;;
58685;SDS011;44465;53.206;-6.106;2022-08-18T08:23:43;1.83;;;1.35;;
58685;SDS011;44465;53.206;-6.106;2022-08-18T08:31:47;1.55;;;1.35;;
58685;SDS011;44465;53.206;-6.106;2022-08-18T08:34:24;2.28;;;1.17;;
58685;SDS011;44465;53.206;-6.106;2022-08-18T08:37:00;1.17;;;1.08;;
58685;SDS011;44465;53.206;-6.106;2022-08-18T08:42:18;2.45;;;1.15;;
58685;SDS011;44465;53.206;-6.106;2022-08-18T08:44:53;1.17;;;1.10;;
58685;SDS011;44465;53.206;-6.106;2022-08-18T08:47:37;1.40;;;1.30;;
58685;SDS011;44465;53.206;-6.106;2022-08-18T08:50:06;1.48;;;1.30;;
58685;SDS011;44465;53.206;-6.106;2022-08-18T08:55:16;1.67;;;1.30;;
58685;SDS011;44465;53.206;-6.106;2022-08-18T09:00:43;1.65;;;1.27;;
58685;SDS011;44465;53.206;-6.106;2022-08-18T09:03:13;1.00;;;1.00;;
58685;SDS011;44465;53.206;-6.106;2022-08-18T09:05:46;1.00;;;0.90;;
58685;SDS011;44465;53.206;-6.106;2022-08-18T09:19:33;1.35;;;0.63;;
58685;SDS011;44465;53.206;-6.106;2022-08-18T09:24:55;1.10;;;1.00;;
58685;SDS011;44465;53.206;-6.106;2022-08-18T09:29:52;3.63;;;1.05;;
58685;SDS011;44465;53.206;-6.106;2022-08-18T09:38:06;1.25;;;0.93;;
58685;SDS011;44465;53.206;-6.106;2022-08-18T09:40:57;2.95;;;1.33;;
58685;SDS011;44465;53.206;-6.106;2022-08-18T09:43:54;1.52;;;0.68;;
58685;SDS011;44465;53.206;-6.106;2022-08-18T09:51:47;1.85;;;0.80;;
58685;SDS011;44465;53.206;-6.106;2022-08-18T09:54:35;1.02;;;0.60;;
58685;SDS011;44465;53.206;-6.106;2022-08-18T09:57:18;0.60;;;0.60;;
58685;SDS011;44465;53.206;-6.106;2022-08-18T10:13:32;2.22;;;0.80;;
58685;SDS011;44465;53.206;-6.106;2022-08-18T10:16:19;2.35;;;0.73;;
58685;SDS011;44465;53.206;-6.106;2022-08-18T10:19:04;1.75;;;0.60;;
58685;SDS011;44465;53.206;-6.106;2022-08-18T10:24:42;3.10;;;0.60;;
58685;SDS011;44465;53.206;-6.106;2022-08-18T10:33:10;1.33;;;0.80;;
58685;SDS011;44465;53.206;-6.106;2022-08-18T10:40:43;0.65;;;0.47;;
58685;SDS011;44465;53.206;-6.106;2022-08-18T10:46:17;1.33;;;0.70;;
58685;SDS011;44465;53.206;-6.106;2022-08-18T10:48:57;1.40;;;0.70;;
58685;SDS011;44465;53.206;-6.106;2022-08-18T10:57:11;1.23;;;0.73;;
58685;SDS011;44465;53.206;-6.106;2022-08-18T10:59:58;1.20;;;0.68;;
58685;SDS011;44465;53.206;-6.106;2022-08-18T11:05:05;0.90;;;0.85;;
58685;SDS011;44465;53.206;-6.106;2022-08-18T11:07:33;0.93;;;0.50;;
58685;SDS011;44465;53.206;-6.106;2022-08-18T11:10:00;0.60;;;0.43;;
58685;SDS011;44465;53.206;-6.106;2022-08-18T11:18:03;0.63;;;0.60;;
58685;SDS011;44465;53.206;-6.106;2022-08-18T11:20:33;1.42;;;0.80;;
58685;SDS011;44465;53.206;-6.106;2022-08-18T11:23:00;0.77;;;0.60;;
58685;SDS011;44465;53.206;-6.106;2022-08-18T11:25:28;0.85;;;0.60;;
58685;SDS011;44465;53.206;-6.106;2022-08-18T11:27:56;0.70;;;0.50;;
58685;SDS011;44465;53.206;-6.106;2022-08-18T11:30:33;1.25;;;0.47;;
58685;SDS011;44465;53.206;-6.106;2022-08-18T11:33:01;2.38;;;0.90;;
58685;SDS011;44465;53.206;-6.106;2022-08-18T11:35:29;1.85;;;0.60;;
58685;SDS011;44465;53.206;-6.106;2022-08-18T11:38:00;0.60;;;0.60;;
58685;SDS011;44465;53.206;-6.106;2022-08-18T11:40:33;2.85;;;0.65;;
58685;SDS011;44465;53.206;-6.106;2022-08-18T11:48:10;2.67;;;0.52;;
58685;SDS011;44465;53.206;-6.106;2022-08-18T11:56:05;0.43;;;0.40;;
58685;SDS011;44465;53.206;-6.106;2022-08-18T12:01:32;0.75;;;0.63;;
58685;SDS011;44465;53.206;-6.106;2022-08-18T12:07:00;0.77;;;0.52;;
58685;SDS011;44465;53.206;-6.106;2022-08-18T12:09:34;0.82;;;0.57;;
58685;SDS011;44465;53.206;-6.106;2022-08-18T12:12:32;0.73;;;0.50;;
58685;SDS011;44465;53.206;-6.106;2022-08-18T12:17:47;0.40;;;0.40;;
58685;SDS011;44465;53.206;-6.106;2022-08-18T12:20:13;0.75;;;0.60;;
58685;SDS011;44465;53.206;-6.106;2022-08-18T12:22:41;1.95;;;0.57;;
58685;SDS011;44465;53.206;-6.106;2022-08-18T12:25:09;0.40;;;0.40;;
58685;SDS011;44465;53.206;-6.106;2022-08-18T12:27:37;0.40;;;0.40;;
58685;SDS011;44465;53.206;-6.106;2022-08-18T12:30:04;0.40;;;0.30;;
58685;SDS011;44465;53.206;-6.106;2022-08-18T12:32:32;0.65;;;0.30;;
58685;SDS011;44465;53.206;-6.106;2022-08-18T12:35:00;0.40;;;0.40;;
58685;SDS011;44465;53.206;-6.106;2022-08-18T12:37:26;0.50;;;0.50;;
58685;SDS011;44465;53.206;-6.106;2022-08-18T12:42:19;5.15;;;0.52;;
58685;SDS011;44465;53.206;-6.106;2022-08-18T12:44:45;0.40;;;0.40;;
58685;SDS011;44465;53.206;-6.106;2022-08-18T12:47:13;0.40;;;0.40;;
58685;SDS011;44465;53.206;-6.106;2022-08-18T12:49:41;9.15;;;1.70;;
58685;SDS011;44465;53.206;-6.106;2022-08-18T12:52:07;4.65;;;0.63;;
58685;SDS011;44465;53.206;-6.106;2022-08-18T12:54:33;7.38;;;0.75;;
58685;SDS011;44465;53.206;-6.106;2022-08-18T12:57:00;2.17;;;0.77;;
58685;SDS011;44465;53.206;-6.106;2022-08-18T12:59:27;2.10;;;0.93;;
58685;SDS011;44465;53.206;-6.106;2022-08-18T13:01:53;3.28;;;0.82;;
58685;SDS011;44465;53.206;-6.106;2022-08-18T13:04:18;2.50;;;0.73;;
58685;SDS011;44465;53.206;-6.106;2022-08-18T13:06:51;2.95;;;0.80;;
58685;SDS011;44465;53.206;-6.106;2022-08-18T13:09:19;5.93;;;0.75;;
58685;SDS011;44465;53.206;-6.106;2022-08-18T13:11:45;2.60;;;0.75;;
58685;SDS011;44465;53.206;-6.106;2022-08-18T13:14:11;1.85;;;0.50;;
58685;SDS011;44465;53.206;-6.106;2022-08-18T13:16:40;3.17;;;0.50;;
58685;SDS011;44465;53.206;-6.106;2022-08-18T13:19:08;1.67;;;0.55;;
58685;SDS011;44465;53.206;-6.106;2022-08-18T13:21:34;1.63;;;0.35;;
58685;SDS011;44465;53.206;-6.106;2022-08-18T13:24:00;2.40;;;0.50;;
58685;SDS011;44465;53.206;-6.106;2022-08-18T13:26:32;3.70;;;1.38;;
58685;SDS011;44465;53.206;-6.106;2022-08-18T13:29:00;2.42;;;0.60;;
58685;SDS011;44465;53.206;-6.106;2022-08-18T13:31:27;3.10;;;0.98;;
58685;SDS011;44465;53.206;-6.106;2022-08-18T13:33:55;0.73;;;0.52;;
58685;SDS011;44465;53.206;-6.106;2022-08-18T13:36:21;2.78;;;0.50;;
58685;SDS011;44465;53.206;-6.106;2022-08-18T13:38:47;0.45;;;0.40;;
58685;SDS011;44465;53.206;-6.106;2022-08-18T13:41:13;2.80;;;0.60;;
58685;SDS011;44465;53.206;-6.106;2022-08-18T13:43:40;2.40;;;0.57;;
58685;SDS011;44465;53.206;-6.106;2022-08-18T13:46:11;1.25;;;0.57;;
58685;SDS011;44465;53.206;-6.106;2022-08-18T13:48:38;1.55;;;0.45;;
58685;SDS011;44465;53.206;-6.106;2022-08-18T13:51:04;0.57;;;0.57;;
58685;SDS011;44465;53.206;-6.106;2022-08-18T13:53:32;0.90;;;0.52;;
58685;SDS011;44465;53.206;-6.106;2022-08-18T13:55:59;0.55;;;0.55;;
58685;SDS011;44465;53.206;-6.106;2022-08-18T13:58:26;0.77;;;0.63;;
58685;SDS011;44465;53.206;-6.106;2022-08-18T14:00:57;0.55;;;0.30;;
58685;SDS011;44465;53.206;-6.106;2022-08-18T14:03:24;2.20;;;0.50;;
58685;SDS011;44465;53.206;-6.106;2022-08-18T14:05:50;0.75;;;0.45;;
58685;SDS011;44465;53.206;-6.106;2022-08-18T14:08:18;1.15;;;0.40;;
58685;SDS011;44465;53.206;-6.106;2022-08-18T14:10:44;0.50;;;0.50;;
58685;SDS011;44465;53.206;-6.106;2022-08-18T14:13:13;1.23;;;0.40;;
58685;SDS011;44465;53.206;-6.106;2022-08-18T14:15:39;0.60;;;0.40;;
58685;SDS011;44465;53.206;-6.106;2022-08-18T14:18:06;1.20;;;0.68;;
58685;SDS011;44465;53.206;-6.106;2022-08-18T14:20:31;1.17;;;0.60;;
58685;SDS011;44465;53.206;-6.106;2022-08-18T14:23:15;2.83;;;0.40;;
58685;SDS011;44465;53.206;-6.106;2022-08-18T14:25:59;0.70;;;0.40;;
58685;SDS011;44465;53.206;-6.106;2022-08-18T14:28:43;0.40;;;0.40;;
58685;SDS011;44465;53.206;-6.106;2022-08-18T14:31:08;0.47;;;0.47;;
58685;SDS011;44465;53.206;-6.106;2022-08-18T14:33:36;0.98;;;0.40;;
58685;SDS011;44465;53.206;-6.106;2022-08-18T14:36:02;0.30;;;0.30;;
58685;SDS011;44465;53.206;-6.106;2022-08-18T14:38:30;0.40;;;0.40;;
58685;SDS011;44465;53.206;-6.106;2022-08-18T14:40:57;0.70;;;0.50;;
58685;SDS011;44465;53.206;-6.106;2022-08-18T14:43:26;0.40;;;0.40;;
58685;SDS011;44465;53.206;-6.106;2022-08-18T14:45:52;0.68;;;0.50;;
58685;SDS011;44465;53.206;-6.106;2022-08-18T14:48:18;0.50;;;0.50;;
58685;SDS011;44465;53.206;-6.106;2022-08-18T14:50:47;0.32;;;0.32;;
58685;SDS011;44465;53.206;-6.106;2022-08-18T14:53:15;1.50;;;0.30;;
58685;SDS011;44465;53.206;-6.106;2022-08-18T14:55:44;0.50;;;0.50;;
58685;SDS011;44465;53.206;-6.106;2022-08-18T14:58:10;0.60;;;0.60;;
58685;SDS011;44465;53.206;-6.106;2022-08-18T15:00:35;0.50;;;0.50;;
58685;SDS011;44465;53.206;-6.106;2022-08-18T15:03:01;0.75;;;0.60;;
58685;SDS011;44465;53.206;-6.106;2022-08-18T15:05:28;0.60;;;0.60;;
58685;SDS011;44465;53.206;-6.106;2022-08-18T15:07:56;1.48;;;0.60;;
58685;SDS011;44465;53.206;-6.106;2022-08-18T15:10:22;0.73;;;0.50;;
58685;SDS011;44465;53.206;-6.106;2022-08-18T15:12:49;1.02;;;0.60;;
58685;SDS011;44465;53.206;-6.106;2022-08-18T15:15:15;0.50;;;0.38;;
58685;SDS011;44465;53.206;-6.106;2022-08-18T15:17:42;0.40;;;0.40;;
58685;SDS011;44465;53.206;-6.106;2022-08-18T15:20:08;1.52;;;0.47;;
58685;SDS011;44465;53.206;-6.106;2022-08-18T15:25:22;0.40;;;0.40;;
58685;SDS011;44465;53.206;-6.106;2022-08-18T15:28:09;0.85;;;0.45;;
58685;SDS011;44465;53.206;-6.106;2022-08-18T15:30:34;0.40;;;0.40;;
58685;SDS011;44465;53.206;-6.106;2022-08-18T15:33:03;1.65;;;0.50;;
58685;SDS011;44465;53.206;-6.106;2022-08-18T15:35:29;2.60;;;0.57;;
58685;SDS011;44465;53.206;-6.106;2022-08-18T15:37:55;0.60;;;0.60;;
58685;SDS011;44465;53.206;-6.106;2022-08-18T15:40:22;0.40;;;0.40;;
58685;SDS011;44465;53.206;-6.106;2022-08-18T15:42:53;0.63;;;0.50;;
58685;SDS011;44465;53.206;-6.106;2022-08-18T15:45:26;0.40;;;0.40;;
58685;SDS011;44465;53.206;-6.106;2022-08-18T15:47:54;1.27;;;0.50;;
58685;SDS011;44465;53.206;-6.106;2022-08-18T15:50:20;1.15;;;0.65;;
58685;SDS011;44465;53.206;-6.106;2022-08-18T15:52:50;0.32;;;0.32;;
58685;SDS011;44465;53.206;-6.106;2022-08-18T15:55:22;1.55;;;0.75;;
58685;SDS011;44465;53.206;-6.106;2022-08-18T15:57:50;1.00;;;0.60;;
58685;SDS011;44465;53.206;-6.106;2022-08-18T16:00:16;1.20;;;0.43;;
58685;SDS011;44465;53.206;-6.106;2022-08-18T16:02:52;2.90;;;0.50;;
58685;SDS011;44465;53.206;-6.106;2022-08-18T16:05:22;0.40;;;0.40;;
58685;SDS011;44465;53.206;-6.106;2022-08-18T16:07:49;3.20;;;0.60;;
58685;SDS011;44465;53.206;-6.106;2022-08-18T16:10:17;0.98;;;0.90;;
58685;SDS011;44465;53.206;-6.106;2022-08-18T16:12:45;0.65;;;0.65;;
58685;SDS011;44465;53.206;-6.106;2022-08-18T16:15:15;1.15;;;0.60;;
58685;SDS011;44465;53.206;-6.106;2022-08-18T16:17:43;1.92;;;0.80;;
58685;SDS011;44465;53.206;-6.106;2022-08-18T16:20:09;0.50;;;0.50;;
58685;SDS011;44465;53.206;-6.106;2022-08-18T16:22:35;0.68;;;0.60;;
58685;SDS011;44465;53.206;-6.106;2022-08-18T16:25:02;1.40;;;0.47;;
58685;SDS011;44465;53.206;-6.106;2022-08-18T16:29:56;0.65;;;0.60;;
58685;SDS011;44465;53.206;-6.106;2022-08-18T16:32:22;0.40;;;0.40;;
58685;SDS011;44465;53.206;-6.106;2022-08-18T16:34:48;1.20;;;0.60;;
58685;SDS011;44465;53.206;-6.106;2022-08-18T16:37:14;0.80;;;0.80;;
58685;SDS011;44465;53.206;-6.106;2022-08-18T16:39:39;0.47;;;0.47;;
58685;SDS011;44465;53.206;-6.106;2022-08-18T16:42:05;0.60;;;0.60;;
58685;SDS011;44465;53.206;-6.106;2022-08-18T16:44:31;0.50;;;0.50;;
58685;SDS011;44465;53.206;-6.106;2022-08-18T16:46:57;0.70;;;0.70;;
58685;SDS011;44465;53.206;-6.106;2022-08-18T16:49:26;4.85;;;0.98;;
58685;SDS011;44465;53.206;-6.106;2022-08-18T16:51:52;4.70;;;1.00;;
58685;SDS011;44465;53.206;-6.106;2022-08-18T16:54:18;6.97;;;0.95;;
58685;SDS011;44465;53.206;-6.106;2022-08-18T16:56:44;4.38;;;0.90;;
58685;SDS011;44465;53.206;-6.106;2022-08-18T16:59:09;2.03;;;1.27;;
58685;SDS011;44465;53.206;-6.106;2022-08-18T17:01:53;17.80;;;3.08;;
58685;SDS011;44465;53.206;-6.106;2022-08-18T17:04:38;7.47;;;2.13;;
58685;SDS011;44465;53.206;-6.106;2022-08-18T17:07:04;13.95;;;2.15;;
58685;SDS011;44465;53.206;-6.106;2022-08-18T17:09:30;4.70;;;1.50;;
58685;SDS011;44465;53.206;-6.106;2022-08-18T17:11:57;7.07;;;1.58;;
58685;SDS011;44465;53.206;-6.106;2022-08-18T17:14:24;4.00;;;1.20;;
58685;SDS011;44465;53.206;-6.106;2022-08-18T17:16:52;16.20;;;2.75;;
58685;SDS011;44465;53.206;-6.106;2022-08-18T17:19:19;7.75;;;1.73;;
58685;SDS011;44465;53.206;-6.106;2022-08-18T17:21:47;5.40;;;1.55;;
58685;SDS011;44465;53.206;-6.106;2022-08-18T17:24:12;5.82;;;1.40;;
58685;SDS011;44465;53.206;-6.106;2022-08-18T17:29:21;4.30;;;1.10;;
58685;SDS011;44465;53.206;-6.106;2022-08-18T17:31:58;6.57;;;1.20;;
58685;SDS011;44465;53.206;-6.106;2022-08-18T17:34:29;6.32;;;1.63;;
58685;SDS011;44465;53.206;-6.106;2022-08-18T17:36:58;7.80;;;1.23;;
58685;SDS011;44465;53.206;-6.106;2022-08-18T17:41:57;3.65;;;1.02;;
58685;SDS011;44465;53.206;-6.106;2022-08-18T17:44:42;4.50;;;1.00;;
58685;SDS011;44465;53.206;-6.106;2022-08-18T17:49:41;7.60;;;1.45;;